createdAt,value
2018-08-27T00:01:48.074Z,3.83
2018-08-27T00:04:16.620Z,3.87
2018-08-27T00:06:45.163Z,3.77
2018-08-27T00:09:13.921Z,3.87
2018-08-27T00:11:42.459Z,3.47
2018-08-27T00:14:10.987Z,3.60
2018-08-27T00:16:39.539Z,3.23
2018-08-27T00:19:08.211Z,3.53
2018-08-27T00:21:36.755Z,3.60
2018-08-27T00:24:05.286Z,3.27
2018-08-27T00:26:33.849Z,4.00
2018-08-27T00:29:02.358Z,3.83
2018-08-27T00:31:30.897Z,3.50
2018-08-27T00:33:59.417Z,3.47
2018-08-27T00:36:27.969Z,3.77
2018-08-27T00:38:56.518Z,3.53
2018-08-27T00:41:25.085Z,3.20
2018-08-27T00:43:53.612Z,4.00
2018-08-27T00:46:22.204Z,3.50
2018-08-27T00:48:50.731Z,3.50
2018-08-27T00:51:19.292Z,3.73
2018-08-27T00:53:47.850Z,3.63
2018-08-27T00:56:16.431Z,3.60
2018-08-27T00:58:44.969Z,3.50
2018-08-27T01:01:13.528Z,3.90
2018-08-27T01:03:42.077Z,4.07
2018-08-27T01:06:10.618Z,3.93
2018-08-27T01:08:39.143Z,3.70
2018-08-27T01:11:07.741Z,4.23
2018-08-27T01:13:36.286Z,3.40
2018-08-27T01:16:05.031Z,4.20
2018-08-27T01:18:33.566Z,3.90
2018-08-27T01:21:02.214Z,3.67
2018-08-27T01:23:30.747Z,3.77
2018-08-27T01:25:59.300Z,3.40
2018-08-27T01:28:28.117Z,3.83
2018-08-27T01:30:56.672Z,3.90
2018-08-27T01:33:25.220Z,3.70
2018-08-27T01:35:53.776Z,4.10
2018-08-27T01:38:22.328Z,4.57
2018-08-27T01:40:50.887Z,3.97
2018-08-27T01:43:19.419Z,4.03
2018-08-27T01:45:47.972Z,3.57
2018-08-27T01:48:16.507Z,3.80
2018-08-27T01:50:45.050Z,3.40
2018-08-27T01:53:13.640Z,3.87
2018-08-27T01:55:42.179Z,4.13
2018-08-27T01:58:10.799Z,4.30
2018-08-27T02:00:39.343Z,4.07
2018-08-27T02:03:07.908Z,3.93
2018-08-27T02:05:36.433Z,4.77
2018-08-27T02:08:05.091Z,3.80
2018-08-27T02:10:33.678Z,3.33
2018-08-27T02:13:02.263Z,4.00
2018-08-27T02:15:30.808Z,4.17
2018-08-27T02:17:59.369Z,4.20
2018-08-27T02:20:27.908Z,4.30
2018-08-27T02:22:56.480Z,4.33
2018-08-27T02:25:24.993Z,4.53
2018-08-27T02:27:53.555Z,3.97
2018-08-27T02:30:22.128Z,4.17
2018-08-27T02:32:50.650Z,4.37
2018-08-27T02:35:19.167Z,5.03
2018-08-27T02:37:47.681Z,4.47
2018-08-27T02:40:16.228Z,4.90
2018-08-27T02:42:44.758Z,4.77
2018-08-27T02:45:13.280Z,4.80
2018-08-27T02:47:41.814Z,4.50
2018-08-27T02:50:10.326Z,4.93
2018-08-27T02:52:38.837Z,4.00
2018-08-27T02:55:07.383Z,5.10
2018-08-27T02:57:35.944Z,4.10
2018-08-27T03:00:04.479Z,4.50
2018-08-27T03:02:32.996Z,5.17
2018-08-27T03:05:01.502Z,5.20
2018-08-27T03:07:30.041Z,4.83
2018-08-27T03:09:58.579Z,4.57
2018-08-27T03:12:27.112Z,4.80
2018-08-27T03:14:55.615Z,4.70
2018-08-27T03:17:24.156Z,4.53
2018-08-27T03:19:52.662Z,5.03
2018-08-27T03:22:21.186Z,5.60
2018-08-27T03:24:49.768Z,5.60
2018-08-27T03:27:18.295Z,4.90
2018-08-27T03:29:46.801Z,4.97
2018-08-27T03:32:15.364Z,5.60
2018-08-27T03:34:43.999Z,5.17
2018-08-27T03:37:12.511Z,4.97
2018-08-27T03:39:41.069Z,4.83
2018-08-27T03:42:10.079Z,5.87
2018-08-27T03:44:38.636Z,5.07
2018-08-27T03:47:07.127Z,5.20
2018-08-27T03:49:35.639Z,5.17
2018-08-27T03:52:04.183Z,5.17
2018-08-27T03:54:32.682Z,5.13
2018-08-27T03:57:01.197Z,5.30
2018-08-27T03:59:29.677Z,5.37
2018-08-27T04:01:58.226Z,4.87
2018-08-27T04:04:26.732Z,4.90
2018-08-27T04:06:55.263Z,4.30
2018-08-27T04:09:23.803Z,4.73
2018-08-27T04:11:52.310Z,5.73
2018-08-27T04:14:20.864Z,5.93
2018-08-27T04:16:49.365Z,5.87
2018-08-27T04:19:17.890Z,5.53
2018-08-27T04:21:46.401Z,4.87
2018-08-27T04:24:14.925Z,5.17
2018-08-27T04:26:43.437Z,5.60
2018-08-27T04:29:11.946Z,5.40
2018-08-27T04:31:40.447Z,5.60
2018-08-27T04:34:08.955Z,5.27
2018-08-27T04:36:37.454Z,5.57
2018-08-27T04:39:08.392Z,5.53
2018-08-27T04:41:36.872Z,5.77
2018-08-27T04:44:05.431Z,5.33
2018-08-27T04:46:33.960Z,5.40
2018-08-27T04:49:02.643Z,5.20
2018-08-27T04:51:31.179Z,5.90
2018-08-27T04:53:59.720Z,5.30
2018-08-27T04:56:28.215Z,5.13
2018-08-27T04:59:00.934Z,5.43
2018-08-27T05:01:29.491Z,5.10
2018-08-27T05:03:58.006Z,5.53
2018-08-27T05:06:26.499Z,5.30
2018-08-27T05:08:55.022Z,7.07
2018-08-27T05:11:23.513Z,5.80
2018-08-27T05:13:52.047Z,5.30
2018-08-27T05:16:20.534Z,5.03
2018-08-27T05:18:49.042Z,4.93
2018-08-27T05:21:17.555Z,5.00
2018-08-27T05:23:46.109Z,5.40
2018-08-27T05:26:14.586Z,4.93
2018-08-27T05:28:43.118Z,4.53
2018-08-27T05:31:11.661Z,4.23
2018-08-27T05:33:40.176Z,3.90
2018-08-27T05:36:08.670Z,4.27
2018-08-27T05:38:37.306Z,4.20
2018-08-27T05:41:05.742Z,4.13
2018-08-27T05:43:34.239Z,4.00
2018-08-27T05:46:02.751Z,3.43
2018-08-27T05:48:31.276Z,3.27
2018-08-27T05:50:59.796Z,3.70
2018-08-27T05:53:28.312Z,3.10
2018-08-27T05:55:56.862Z,2.70
2018-08-27T05:58:25.510Z,3.00
2018-08-27T06:00:54.000Z,2.60
2018-08-27T06:03:22.499Z,2.33
2018-08-27T06:05:51.005Z,2.47
2018-08-27T06:08:19.502Z,2.40
2018-08-27T06:10:48.514Z,2.22
2018-08-27T06:13:16.992Z,2.12
2018-08-27T06:15:45.500Z,2.12
2018-08-27T06:18:13.990Z,2.47
2018-08-27T06:20:42.513Z,2.40
2018-08-27T06:23:11.006Z,2.37
2018-08-27T06:25:39.516Z,1.82
2018-08-27T06:28:08.088Z,2.55
2018-08-27T06:30:36.761Z,2.37
2018-08-27T06:33:05.266Z,2.52
2018-08-27T06:35:33.750Z,2.35
2018-08-27T06:38:02.293Z,2.00
2018-08-27T06:40:30.752Z,2.50
2018-08-27T06:42:59.218Z,2.30
2018-08-27T06:45:27.735Z,2.40
2018-08-27T06:47:56.210Z,2.10
2018-08-27T06:50:24.695Z,2.10
2018-08-27T06:52:53.171Z,2.40
2018-08-27T06:55:21.649Z,2.00
2018-08-27T06:57:50.114Z,2.02
2018-08-27T07:00:18.605Z,2.10
2018-08-27T07:02:47.069Z,2.25
2018-08-27T07:05:15.581Z,1.92
2018-08-27T07:07:44.129Z,1.92
2018-08-27T07:10:12.559Z,1.92
2018-08-27T07:12:41.748Z,1.90
2018-08-27T07:15:10.277Z,1.67
2018-08-27T07:17:38.826Z,2.27
2018-08-27T07:20:07.895Z,2.17
2018-08-27T07:22:36.563Z,2.00
2018-08-27T07:25:05.127Z,2.10
2018-08-27T07:27:33.705Z,1.90
2018-08-27T07:30:02.178Z,2.12
2018-08-27T07:32:30.633Z,2.17
2018-08-27T07:34:59.139Z,2.35
2018-08-27T07:37:27.663Z,2.35
2018-08-27T07:39:56.151Z,2.22
2018-08-27T07:42:24.647Z,1.95
2018-08-27T07:44:53.162Z,2.08
2018-08-27T07:47:21.643Z,1.77
2018-08-27T07:49:50.140Z,1.72
2018-08-27T07:52:18.654Z,1.20
2018-08-27T07:54:47.151Z,1.82
2018-08-27T07:57:15.637Z,1.52
2018-08-27T07:59:44.161Z,1.50
2018-08-27T08:02:12.664Z,1.77
2018-08-27T08:04:41.222Z,2.50
2018-08-27T08:07:09.809Z,1.95
2018-08-27T08:09:38.245Z,1.80
2018-08-27T08:12:06.762Z,1.80
2018-08-27T08:14:35.342Z,1.80
2018-08-27T08:17:04.076Z,1.50
2018-08-27T08:19:32.638Z,1.47
2018-08-27T08:22:01.310Z,1.55
2018-08-27T08:24:29.863Z,1.50
2018-08-27T08:26:58.424Z,1.90
2018-08-27T08:29:27.391Z,1.87
2018-08-27T08:31:55.925Z,1.40
2018-08-27T08:34:24.445Z,1.72
2018-08-27T08:36:52.962Z,2.05
2018-08-27T08:39:21.467Z,1.70
2018-08-27T08:41:50.034Z,2.08
2018-08-27T08:44:18.550Z,1.65
2018-08-27T08:46:47.096Z,1.75
2018-08-27T08:49:15.618Z,1.77
2018-08-27T08:51:44.137Z,1.70
2018-08-27T08:54:12.641Z,2.02
2018-08-27T08:56:41.244Z,1.80
2018-08-27T08:59:09.767Z,2.00
2018-08-27T09:01:38.337Z,1.67
2018-08-27T09:04:06.808Z,2.08
2018-08-27T09:06:35.334Z,1.57
2018-08-27T09:09:04.005Z,1.80
2018-08-27T09:11:32.553Z,2.02
2018-08-27T09:14:01.125Z,1.77
2018-08-27T09:16:30.293Z,1.45
2018-08-27T09:18:58.818Z,1.60
2018-08-27T09:21:27.354Z,1.90
2018-08-27T09:23:55.896Z,1.60
2018-08-27T09:26:24.426Z,1.80
2018-08-27T09:28:52.938Z,1.98
2018-08-27T09:31:21.576Z,1.92
2018-08-27T09:33:50.096Z,1.57
2018-08-27T09:36:18.627Z,1.77
2018-08-27T09:38:47.113Z,1.70
2018-08-27T09:41:15.634Z,1.52
2018-08-27T09:43:44.133Z,1.60
2018-08-27T09:46:12.640Z,1.65
2018-08-27T09:48:41.173Z,11.88
2018-08-27T09:51:09.674Z,1.57
2018-08-27T09:53:38.178Z,1.47
2018-08-27T09:56:06.756Z,1.50
2018-08-27T09:58:35.294Z,1.65
2018-08-27T10:01:09.041Z,1.67
2018-08-27T10:03:37.551Z,1.70
2018-08-27T10:06:07.023Z,1.40
2018-08-27T10:08:35.514Z,1.60
2018-08-27T10:11:04.071Z,1.40
2018-08-27T10:13:32.565Z,1.50
2018-08-27T10:16:01.050Z,1.50
2018-08-27T10:18:29.534Z,1.45
2018-08-27T10:20:58.038Z,1.47
2018-08-27T10:23:26.591Z,1.45
2018-08-27T10:25:55.075Z,1.70
2018-08-27T10:28:23.603Z,1.15
2018-08-27T10:30:52.086Z,1.35
2018-08-27T10:33:20.606Z,1.90
2018-08-27T10:35:49.096Z,1.42
2018-08-27T10:38:17.604Z,1.62
2018-08-27T10:40:46.086Z,1.87
2018-08-27T10:43:14.586Z,1.42
2018-08-27T10:45:43.088Z,1.50
2018-08-27T10:48:11.681Z,1.40
2018-08-27T10:50:40.183Z,1.52
2018-08-27T10:53:08.683Z,1.62
2018-08-27T10:55:37.150Z,1.50
2018-08-27T10:58:05.698Z,1.42
2018-08-27T11:00:34.164Z,1.70
2018-08-27T11:03:02.710Z,4.00
2018-08-27T11:05:31.252Z,1.10
2018-08-27T11:07:59.810Z,1.10
2018-08-27T11:10:30.078Z,1.57
2018-08-27T11:12:59.529Z,1.40
2018-08-27T11:15:28.123Z,1.25
2018-08-27T11:17:56.655Z,1.27
2018-08-27T11:20:25.370Z,1.02
2018-08-27T11:22:53.655Z,1.07
2018-08-27T11:25:22.144Z,1.05
2018-08-27T11:27:50.679Z,1.35
2018-08-27T11:30:19.205Z,1.50
2018-08-27T11:32:47.715Z,1.57
2018-08-27T11:35:16.202Z,1.40
2018-08-27T11:37:44.685Z,1.62
2018-08-27T11:40:13.163Z,1.20
2018-08-27T11:42:43.215Z,1.50
2018-08-27T11:45:11.709Z,1.77
2018-08-27T11:47:40.222Z,1.20
2018-08-27T11:50:09.827Z,1.30
2018-08-27T11:52:38.435Z,1.30
2018-08-27T11:55:08.551Z,1.65
2018-08-27T11:57:37.165Z,1.30
2018-08-27T12:00:06.422Z,1.35
2018-08-27T12:02:34.943Z,1.40
2018-08-27T12:08:06.548Z,1.40
2018-08-27T12:10:35.068Z,1.30
2018-08-27T12:13:03.574Z,1.57
2018-08-27T12:15:32.048Z,1.60
2018-08-27T12:18:00.554Z,1.90
2018-08-27T12:20:29.030Z,1.80
2018-08-27T12:22:57.565Z,1.40
2018-08-27T12:25:26.091Z,2.47
2018-08-27T12:27:54.914Z,1.55
2018-08-27T12:30:23.445Z,1.70
2018-08-27T12:32:51.967Z,1.25
2018-08-27T12:35:20.503Z,1.50
2018-08-27T12:37:49.046Z,1.60
2018-08-27T12:40:17.549Z,1.50
2018-08-27T12:42:46.053Z,1.30
2018-08-27T12:45:14.568Z,1.40
2018-08-27T12:47:43.119Z,1.60
2018-08-27T12:50:11.646Z,1.22
2018-08-27T12:52:40.180Z,1.50
2018-08-27T12:55:08.705Z,2.45
2018-08-27T12:57:37.202Z,1.40
2018-08-27T13:00:06.712Z,1.62
2018-08-27T13:02:35.211Z,1.70
2018-08-27T13:05:03.763Z,1.47
2018-08-27T13:07:32.327Z,1.45
2018-08-27T13:10:00.837Z,1.30
2018-08-27T13:12:29.400Z,1.77
2018-08-27T13:14:57.884Z,1.30
2018-08-27T13:17:26.397Z,1.70
2018-08-27T13:19:54.951Z,1.50
2018-08-27T13:22:23.437Z,1.62
2018-08-27T13:24:51.958Z,1.20
2018-08-27T13:27:20.495Z,1.95
2018-08-27T13:29:49.010Z,1.32
2018-08-27T13:32:17.520Z,1.42
2018-08-27T13:34:56.329Z,1.50
2018-08-27T13:37:24.899Z,1.40
2018-08-27T13:39:53.491Z,1.60
2018-08-27T13:42:21.999Z,1.30
2018-08-27T13:44:50.498Z,1.55
2018-08-27T13:47:19.011Z,1.30
2018-08-27T13:49:47.547Z,1.57
2018-08-27T13:52:16.053Z,1.50
2018-08-27T13:54:44.569Z,1.50
2018-08-27T13:57:13.130Z,1.32
2018-08-27T13:59:41.700Z,1.70
2018-08-27T14:02:10.251Z,1.17
2018-08-27T14:04:38.775Z,1.45
2018-08-27T14:07:07.331Z,1.40
2018-08-27T14:09:35.878Z,1.52
2018-08-27T14:12:04.383Z,1.25
2018-08-27T14:14:32.935Z,6.20
2018-08-27T14:17:01.532Z,2.08
2018-08-27T14:19:30.148Z,1.50
2018-08-27T14:21:58.657Z,1.30
2018-08-27T14:24:27.169Z,1.60
2018-08-27T14:26:55.705Z,1.57
2018-08-27T14:29:24.289Z,1.60
2018-08-27T14:31:52.840Z,1.35
2018-08-27T14:34:21.374Z,1.30
2018-08-27T14:36:49.834Z,1.60
2018-08-27T14:39:18.323Z,1.42
2018-08-27T14:41:46.839Z,1.12
2018-08-27T14:44:15.461Z,1.42
2018-08-27T14:46:43.978Z,1.50
2018-08-27T14:49:12.464Z,1.40
2018-08-27T14:51:40.960Z,1.67
2018-08-27T14:54:09.417Z,1.27
2018-08-27T14:56:37.936Z,1.42
2018-08-27T14:59:06.459Z,1.35
2018-08-27T15:01:34.984Z,1.22
2018-08-27T15:04:03.471Z,1.10
2018-08-27T15:06:31.991Z,1.45
2018-08-27T15:09:00.509Z,1.40
2018-08-27T15:11:28.994Z,1.47
2018-08-27T15:13:57.466Z,1.40
2018-08-27T15:16:25.970Z,1.42
2018-08-27T15:18:54.436Z,1.35
2018-08-27T15:21:22.922Z,1.25
2018-08-27T15:23:51.388Z,1.35
2018-08-27T15:26:19.900Z,1.70
2018-08-27T15:28:48.423Z,1.17
2018-08-27T15:31:16.960Z,1.20
2018-08-27T15:33:45.479Z,1.37
2018-08-27T15:36:13.994Z,1.45
2018-08-27T15:38:42.691Z,1.30
2018-08-27T15:41:11.075Z,1.30
2018-08-27T15:43:39.575Z,1.40
2018-08-27T15:46:13.433Z,1.40
2018-08-27T15:48:41.942Z,1.70
2018-08-27T15:51:10.460Z,1.80
2018-08-27T15:53:38.989Z,1.52
2018-08-27T15:56:07.527Z,1.55
2018-08-27T15:58:36.008Z,1.72
2018-08-27T16:01:04.617Z,9.00
2018-08-27T16:03:33.102Z,1.98
2018-08-27T16:06:01.618Z,1.55
2018-08-27T16:08:30.151Z,1.85
2018-08-27T16:10:58.679Z,1.42
2018-08-27T16:13:27.208Z,1.70
2018-08-27T16:15:55.718Z,1.60
2018-08-27T16:18:25.176Z,1.27
2018-08-27T16:20:53.792Z,1.85
2018-08-27T16:23:22.369Z,1.60
2018-08-27T16:25:50.866Z,1.87
2018-08-27T16:28:19.353Z,1.40
2018-08-27T16:30:47.875Z,1.52
2018-08-27T16:33:16.379Z,1.65
2018-08-27T16:35:47.516Z,1.47
2018-08-27T16:38:16.061Z,1.57
2018-08-27T16:40:44.642Z,1.55
2018-08-27T16:43:13.119Z,1.77
2018-08-27T16:45:41.591Z,1.80
2018-08-27T16:48:10.090Z,2.00
2018-08-27T16:50:38.634Z,1.72
2018-08-27T16:53:07.137Z,2.00
2018-08-27T16:55:35.614Z,1.72
2018-08-27T16:58:04.197Z,1.65
2018-08-27T17:00:32.684Z,1.55
2018-08-27T17:03:01.172Z,1.42
2018-08-27T17:05:29.668Z,1.72
2018-08-27T17:07:58.195Z,1.42
2018-08-27T17:10:26.785Z,1.70
2018-08-27T17:12:55.215Z,1.30
2018-08-27T17:15:23.758Z,1.32
2018-08-27T17:17:52.287Z,1.82
2018-08-27T17:20:20.843Z,2.02
2018-08-27T17:22:49.398Z,1.62
2018-08-27T17:25:17.930Z,1.42
2018-08-27T17:27:46.490Z,1.77
2018-08-27T17:30:15.043Z,1.90
2018-08-27T17:32:43.602Z,1.85
2018-08-27T17:35:12.134Z,1.77
2018-08-27T17:37:40.681Z,1.62
2018-08-27T17:40:09.239Z,1.40
2018-08-27T17:42:37.777Z,1.60
2018-08-27T17:45:06.932Z,1.70
2018-08-27T17:47:35.374Z,1.87
2018-08-27T17:50:03.927Z,1.70
2018-08-27T17:52:32.494Z,1.77
2018-08-27T17:55:01.011Z,1.57
2018-08-27T17:57:29.551Z,2.12
2018-08-27T17:59:58.088Z,1.95
2018-08-27T18:02:26.782Z,2.50
2018-08-27T18:04:55.423Z,1.80
2018-08-27T18:07:23.893Z,1.90
2018-08-27T18:09:57.913Z,1.87
2018-08-27T18:12:27.242Z,1.75
2018-08-27T18:14:56.166Z,1.90
2018-08-27T18:17:24.816Z,2.05
2018-08-27T18:19:53.643Z,2.00
2018-08-27T18:22:23.099Z,11.22
2018-08-27T18:24:51.794Z,2.95
2018-08-27T18:27:20.892Z,2.08
2018-08-27T18:29:49.813Z,2.10
2018-08-27T18:32:18.795Z,1.77
2018-08-27T18:34:47.580Z,2.20
2018-08-27T18:37:16.174Z,1.85
2018-08-27T18:39:45.080Z,2.08
2018-08-27T18:42:15.869Z,1.80
2018-08-27T18:44:45.898Z,1.80
2018-08-27T18:47:14.557Z,2.02
2018-08-27T18:49:43.956Z,1.77
2018-08-27T18:52:13.088Z,2.00
2018-08-27T18:54:42.361Z,1.90
2018-08-27T18:57:11.289Z,2.00
2018-08-27T18:59:40.108Z,2.02
2018-08-27T19:02:09.127Z,1.70
2018-08-27T19:04:38.593Z,1.72
2018-08-27T19:07:09.173Z,1.92
2018-08-27T19:09:38.860Z,2.10
2018-08-27T19:12:09.181Z,1.75
2018-08-27T19:14:38.662Z,1.90
2018-08-27T19:17:07.515Z,1.72
2018-08-27T19:19:36.099Z,1.75
2018-08-27T19:22:06.292Z,1.80
2018-08-27T19:24:37.267Z,2.12
2018-08-27T19:27:06.357Z,2.12
2018-08-27T19:29:35.014Z,1.98
2018-08-27T19:32:04.078Z,1.82
2018-08-27T19:34:33.667Z,1.87
2018-08-27T19:37:02.781Z,2.33
2018-08-27T19:39:33.073Z,2.02
2018-08-27T19:42:04.297Z,1.80
2018-08-27T19:44:33.026Z,1.92
2018-08-27T19:47:01.726Z,1.92
2018-08-27T19:49:30.603Z,1.80
2018-08-27T19:51:59.701Z,2.20
2018-08-27T19:54:36.984Z,2.20
2018-08-27T19:57:06.046Z,2.12
2018-08-27T19:59:34.987Z,2.27
2018-08-27T20:02:03.562Z,2.33
2018-08-27T20:04:33.090Z,2.20
2018-08-27T20:07:01.944Z,2.17
2018-08-27T20:09:30.513Z,2.20
2018-08-27T20:11:59.608Z,9.30
2018-08-27T20:14:28.581Z,3.92
2018-08-27T20:16:57.247Z,2.17
2018-08-27T20:19:26.012Z,2.27
2018-08-27T20:21:54.748Z,2.60
2018-08-27T20:24:23.288Z,2.40
2018-08-27T20:26:52.037Z,2.90
2018-08-27T20:29:20.762Z,2.55
2018-08-27T20:31:49.697Z,2.70
2018-08-27T20:34:18.660Z,3.55
2018-08-27T20:36:47.392Z,3.15
2018-08-27T20:39:16.208Z,2.70
2018-08-27T20:41:45.100Z,2.50
2018-08-27T20:44:13.968Z,2.33
2018-08-27T20:46:42.517Z,2.83
2018-08-27T20:49:11.046Z,2.52
2018-08-27T20:51:39.671Z,3.05
2018-08-27T20:54:08.238Z,3.00
2018-08-27T20:56:36.777Z,2.85
2018-08-27T20:59:05.476Z,2.25
2018-08-27T21:01:33.989Z,2.42
2018-08-27T21:04:02.571Z,2.47
2018-08-27T21:06:31.066Z,2.98
2018-08-27T21:08:59.609Z,2.65
2018-08-27T21:11:28.149Z,2.27
2018-08-27T21:14:02.858Z,2.27
2018-08-27T21:16:31.369Z,2.42
2018-08-27T21:18:59.881Z,2.15
2018-08-27T21:21:28.419Z,2.40
2018-08-27T21:23:56.982Z,2.45
2018-08-27T21:26:25.754Z,2.12
2018-08-27T21:28:54.259Z,2.08
2018-08-27T21:31:22.801Z,2.40
2018-08-27T21:33:51.261Z,1.92
2018-08-27T21:36:19.773Z,2.00
2018-08-27T21:38:48.263Z,1.98
2018-08-27T21:41:16.785Z,1.92
2018-08-27T21:43:45.308Z,1.72
2018-08-27T21:46:13.839Z,2.27
2018-08-27T21:48:42.374Z,1.90
2018-08-27T21:51:10.870Z,2.10
2018-08-27T21:53:39.350Z,1.75
2018-08-27T21:56:07.883Z,1.80
2018-08-27T21:58:36.402Z,2.40
2018-08-27T22:01:04.890Z,2.33
2018-08-27T22:03:38.791Z,1.82
2018-08-27T22:06:07.707Z,1.85
2018-08-27T22:08:36.167Z,1.80
2018-08-27T22:11:04.678Z,1.40
2018-08-27T22:13:33.122Z,1.70
2018-08-27T22:16:01.618Z,1.60
2018-08-27T22:18:30.059Z,2.08
2018-08-27T22:20:58.535Z,1.98
2018-08-27T22:23:26.998Z,1.62
2018-08-27T22:25:55.450Z,2.30
2018-08-27T22:28:23.927Z,1.90
2018-08-27T22:30:52.382Z,1.85
2018-08-27T22:33:20.809Z,2.00
2018-08-27T22:35:49.331Z,1.85
2018-08-27T22:38:17.786Z,2.00
2018-08-27T22:40:46.246Z,1.52
2018-08-27T22:43:14.665Z,2.22
2018-08-27T22:45:43.107Z,1.85
2018-08-27T22:48:11.575Z,1.60
2018-08-27T22:50:40.009Z,1.62
2018-08-27T22:53:08.451Z,1.92
2018-08-27T22:55:36.902Z,1.55
2018-08-27T22:58:05.451Z,2.33
2018-08-27T23:00:33.895Z,2.05
2018-08-27T23:03:07.716Z,2.33
2018-08-27T23:05:36.191Z,2.20
2018-08-27T23:08:04.683Z,2.15
2018-08-27T23:10:33.166Z,1.62
2018-08-27T23:13:01.626Z,1.90
2018-08-27T23:15:30.111Z,1.80
2018-08-27T23:17:58.582Z,1.65
2018-08-27T23:20:27.049Z,1.90
2018-08-27T23:22:55.580Z,2.00
2018-08-27T23:25:24.030Z,1.50
2018-08-27T23:27:52.530Z,2.05
2018-08-27T23:30:21.004Z,1.75
2018-08-27T23:32:49.471Z,1.77
2018-08-27T23:35:17.957Z,1.55
2018-08-27T23:37:46.518Z,1.82
2018-08-27T23:40:15.068Z,2.15
2018-08-27T23:42:43.612Z,1.90
2018-08-27T23:45:12.215Z,1.70
2018-08-27T23:47:40.739Z,2.00
2018-08-27T23:50:09.295Z,1.70
2018-08-27T23:52:37.826Z,2.00
2018-08-27T23:55:06.396Z,1.98
2018-08-27T23:57:34.946Z,1.87
